sensor_id;sensor_type;location;lat;lon;timestamp;temperature;humidity
27072;DHT22;14613;46.308;25.288;2022-08-25T00:01:11;19.50;83.50
27072;DHT22;14613;46.308;25.288;2022-08-25T00:03:37;19.40;83.50
27072;DHT22;14613;46.308;25.288;2022-08-25T00:06:05;19.40;83.40
27072;DHT22;14613;46.308;25.288;2022-08-25T00:08:31;19.40;83.50
27072;DHT22;14613;46.308;25.288;2022-08-25T00:11:03;19.40;83.50
27072;DHT22;14613;46.308;25.288;2022-08-25T00:13:29;19.40;83.60
27072;DHT22;14613;46.308;25.288;2022-08-25T00:15:55;19.40;83.60
27072;DHT22;14613;46.308;25.288;2022-08-25T00:18:21;19.40;83.50
27072;DHT22;14613;46.308;25.288;2022-08-25T00:20:47;19.50;83.50
27072;DHT22;14613;46.308;25.288;2022-08-25T00:23:13;19.50;83.40
27072;DHT22;14613;46.308;25.288;2022-08-25T00:25:39;19.50;83.40
27072;DHT22;14613;46.308;25.288;2022-08-25T00:28:04;19.50;83.50
27072;DHT22;14613;46.308;25.288;2022-08-25T00:30:30;19.40;83.60
27072;DHT22;14613;46.308;25.288;2022-08-25T00:32:56;19.40;83.70
27072;DHT22;14613;46.308;25.288;2022-08-25T00:35:22;19.40;83.80
27072;DHT22;14613;46.308;25.288;2022-08-25T00:37:48;19.40;83.80
27072;DHT22;14613;46.308;25.288;2022-08-25T00:40:14;19.50;83.70
27072;DHT22;14613;46.308;25.288;2022-08-25T00:42:40;19.50;83.60
27072;DHT22;14613;46.308;25.288;2022-08-25T00:45:07;19.50;83.50
27072;DHT22;14613;46.308;25.288;2022-08-25T00:47:33;19.50;83.50
27072;DHT22;14613;46.308;25.288;2022-08-25T00:50:00;19.50;83.40
27072;DHT22;14613;46.308;25.288;2022-08-25T00:52:36;19.50;83.40
27072;DHT22;14613;46.308;25.288;2022-08-25T00:55:11;19.50;84.20
27072;DHT22;14613;46.308;25.288;2022-08-25T00:57:45;19.50;83.40
27072;DHT22;14613;46.308;25.288;2022-08-25T01:00:25;19.50;83.40
27072;DHT22;14613;46.308;25.288;2022-08-25T01:02:51;19.50;83.50
27072;DHT22;14613;46.308;25.288;2022-08-25T01:05:18;19.50;83.40
27072;DHT22;14613;46.308;25.288;2022-08-25T01:07:45;19.50;83.40
27072;DHT22;14613;46.308;25.288;2022-08-25T01:10:12;19.50;84.30
27072;DHT22;14613;46.308;25.288;2022-08-25T01:12:38;19.50;83.50
27072;DHT22;14613;46.308;25.288;2022-08-25T01:15:06;19.50;83.50
27072;DHT22;14613;46.308;25.288;2022-08-25T01:17:55;19.50;83.40
27072;DHT22;14613;46.308;25.288;2022-08-25T01:20:22;19.50;83.40
27072;DHT22;14613;46.308;25.288;2022-08-25T01:22:48;19.50;83.40
27072;DHT22;14613;46.308;25.288;2022-08-25T01:27:59;19.40;83.50
27072;DHT22;14613;46.308;25.288;2022-08-25T01:30:26;19.40;83.40
27072;DHT22;14613;46.308;25.288;2022-08-25T01:32:52;19.40;83.50
27072;DHT22;14613;46.308;25.288;2022-08-25T01:35:18;19.40;83.60
27072;DHT22;14613;46.308;25.288;2022-08-25T01:37:44;19.40;83.70
27072;DHT22;14613;46.308;25.288;2022-08-25T01:40:10;19.40;83.70
27072;DHT22;14613;46.308;25.288;2022-08-25T01:45:32;19.40;83.90
27072;DHT22;14613;46.308;25.288;2022-08-25T01:47:58;19.40;83.60
27072;DHT22;14613;46.308;25.288;2022-08-25T01:50:24;19.40;83.70
27072;DHT22;14613;46.308;25.288;2022-08-25T01:53:02;19.30;83.70
27072;DHT22;14613;46.308;25.288;2022-08-25T01:55:28;19.30;83.90
27072;DHT22;14613;46.308;25.288;2022-08-25T01:57:55;19.30;83.70
27072;DHT22;14613;46.308;25.288;2022-08-25T02:00:22;19.40;83.90
27072;DHT22;14613;46.308;25.288;2022-08-25T02:02:48;19.30;83.90
27072;DHT22;14613;46.308;25.288;2022-08-25T02:05:15;19.30;84.00
27072;DHT22;14613;46.308;25.288;2022-08-25T02:07:42;19.30;84.10
27072;DHT22;14613;46.308;25.288;2022-08-25T02:10:09;19.20;84.00
27072;DHT22;14613;46.308;25.288;2022-08-25T02:12:36;19.30;84.10
27072;DHT22;14613;46.308;25.288;2022-08-25T02:15:05;19.30;84.10
27072;DHT22;14613;46.308;25.288;2022-08-25T02:17:33;19.20;84.10
27072;DHT22;14613;46.308;25.288;2022-08-25T02:20:00;19.20;84.10
27072;DHT22;14613;46.308;25.288;2022-08-25T02:22:25;19.20;84.10
27072;DHT22;14613;46.308;25.288;2022-08-25T02:24:53;19.10;84.20
27072;DHT22;14613;46.308;25.288;2022-08-25T02:27:18;19.10;84.30
27072;DHT22;14613;46.308;25.288;2022-08-25T02:29:44;19.10;84.40
27072;DHT22;14613;46.308;25.288;2022-08-25T02:32:11;19.10;84.40
27072;DHT22;14613;46.308;25.288;2022-08-25T02:34:36;19.10;84.40
27072;DHT22;14613;46.308;25.288;2022-08-25T02:37:04;19.10;84.40
27072;DHT22;14613;46.308;25.288;2022-08-25T02:39:38;19.10;84.40
27072;DHT22;14613;46.308;25.288;2022-08-25T02:42:07;19.10;84.40
27072;DHT22;14613;46.308;25.288;2022-08-25T02:45:06;19.10;84.40
27072;DHT22;14613;46.308;25.288;2022-08-25T02:47:35;19.00;84.60
27072;DHT22;14613;46.308;25.288;2022-08-25T02:50:03;19.00;84.40
27072;DHT22;14613;46.308;25.288;2022-08-25T02:52:29;19.00;84.40
27072;DHT22;14613;46.308;25.288;2022-08-25T02:54:55;19.00;84.60
27072;DHT22;14613;46.308;25.288;2022-08-25T02:57:21;18.90;84.70
27072;DHT22;14613;46.308;25.288;2022-08-25T02:59:46;18.90;84.70
27072;DHT22;14613;46.308;25.288;2022-08-25T03:02:14;18.90;85.60
27072;DHT22;14613;46.308;25.288;2022-08-25T03:04:41;18.90;84.90
27072;DHT22;14613;46.308;25.288;2022-08-25T03:07:07;18.90;84.90
27072;DHT22;14613;46.308;25.288;2022-08-25T03:09:32;18.90;84.90
27072;DHT22;14613;46.308;25.288;2022-08-25T03:12:06;18.90;84.90
27072;DHT22;14613;46.308;25.288;2022-08-25T03:14:31;18.90;84.90
27072;DHT22;14613;46.308;25.288;2022-08-25T03:16:57;18.90;84.90
27072;DHT22;14613;46.308;25.288;2022-08-25T03:19:23;18.80;84.90
27072;DHT22;14613;46.308;25.288;2022-08-25T03:21:49;18.80;85.00
27072;DHT22;14613;46.308;25.288;2022-08-25T03:24:16;18.80;85.10
27072;DHT22;14613;46.308;25.288;2022-08-25T03:26:42;18.80;85.10
27072;DHT22;14613;46.308;25.288;2022-08-25T03:29:26;18.80;85.20
27072;DHT22;14613;46.308;25.288;2022-08-25T03:31:54;18.80;85.30
27072;DHT22;14613;46.308;25.288;2022-08-25T03:34:21;18.80;85.20
27072;DHT22;14613;46.308;25.288;2022-08-25T03:36:49;18.80;85.30
27072;DHT22;14613;46.308;25.288;2022-08-25T03:39:17;18.80;85.30
27072;DHT22;14613;46.308;25.288;2022-08-25T03:41:43;18.80;85.40
27072;DHT22;14613;46.308;25.288;2022-08-25T03:44:10;18.80;85.50
27072;DHT22;14613;46.308;25.288;2022-08-25T03:46:40;18.80;85.60
27072;DHT22;14613;46.308;25.288;2022-08-25T03:49:07;18.80;85.70
27072;DHT22;14613;46.308;25.288;2022-08-25T03:51:36;18.80;85.70
27072;DHT22;14613;46.308;25.288;2022-08-25T03:54:03;18.80;86.70
27072;DHT22;14613;46.308;25.288;2022-08-25T03:56:29;18.80;86.00
27072;DHT22;14613;46.308;25.288;2022-08-25T03:58:56;18.90;86.60
27072;DHT22;14613;46.308;25.288;2022-08-25T04:01:22;19.00;87.10
27072;DHT22;14613;46.308;25.288;2022-08-25T04:03:48;19.10;87.40
27072;DHT22;14613;46.308;25.288;2022-08-25T04:06:15;19.20;87.50
27072;DHT22;14613;46.308;25.288;2022-08-25T04:08:41;19.20;87.50
27072;DHT22;14613;46.308;25.288;2022-08-25T04:11:10;19.30;87.30
27072;DHT22;14613;46.308;25.288;2022-08-25T04:13:36;19.30;87.40
27072;DHT22;14613;46.308;25.288;2022-08-25T04:16:09;19.30;87.40
27072;DHT22;14613;46.308;25.288;2022-08-25T04:18:35;19.40;87.30
27072;DHT22;14613;46.308;25.288;2022-08-25T04:21:04;19.40;87.00
27072;DHT22;14613;46.308;25.288;2022-08-25T04:23:31;19.50;86.80
27072;DHT22;14613;46.308;25.288;2022-08-25T04:25:56;19.60;86.80
27072;DHT22;14613;46.308;25.288;2022-08-25T04:28:22;19.60;86.60
27072;DHT22;14613;46.308;25.288;2022-08-25T04:30:48;19.70;86.60
27072;DHT22;14613;46.308;25.288;2022-08-25T04:33:14;19.80;86.50
27072;DHT22;14613;46.308;25.288;2022-08-25T04:35:39;19.80;86.20
27072;DHT22;14613;46.308;25.288;2022-08-25T04:38:05;19.80;85.90
27072;DHT22;14613;46.308;25.288;2022-08-25T04:40:31;19.90;85.90
27072;DHT22;14613;46.308;25.288;2022-08-25T04:42:58;19.90;85.90
27072;DHT22;14613;46.308;25.288;2022-08-25T04:45:24;19.90;85.80
27072;DHT22;14613;46.308;25.288;2022-08-25T04:47:49;19.90;85.60
27072;DHT22;14613;46.308;25.288;2022-08-25T04:50:15;20.00;85.60
27072;DHT22;14613;46.308;25.288;2022-08-25T04:52:41;20.00;85.60
27072;DHT22;14613;46.308;25.288;2022-08-25T04:55:07;20.00;85.60
27072;DHT22;14613;46.308;25.288;2022-08-25T04:57:32;20.10;85.70
27072;DHT22;14613;46.308;25.288;2022-08-25T04:59:58;20.20;85.60
27072;DHT22;14613;46.308;25.288;2022-08-25T05:02:24;20.30;85.40
27072;DHT22;14613;46.308;25.288;2022-08-25T05:04:50;20.40;85.20
27072;DHT22;14613;46.308;25.288;2022-08-25T05:07:16;20.40;85.00
27072;DHT22;14613;46.308;25.288;2022-08-25T05:09:41;20.40;85.00
27072;DHT22;14613;46.308;25.288;2022-08-25T05:12:07;20.50;84.90
27072;DHT22;14613;46.308;25.288;2022-08-25T05:14:33;20.50;84.70
27072;DHT22;14613;46.308;25.288;2022-08-25T05:17:00;20.60;84.50
27072;DHT22;14613;46.308;25.288;2022-08-25T05:19:26;20.70;84.20
27072;DHT22;14613;46.308;25.288;2022-08-25T05:21:52;20.70;84.00
27072;DHT22;14613;46.308;25.288;2022-08-25T05:24:18;20.80;83.80
27072;DHT22;14613;46.308;25.288;2022-08-25T05:26:44;20.80;83.60
27072;DHT22;14613;46.308;25.288;2022-08-25T05:29:10;20.80;83.40
27072;DHT22;14613;46.308;25.288;2022-08-25T05:31:36;20.90;83.30
27072;DHT22;14613;46.308;25.288;2022-08-25T05:34:06;20.90;83.20
27072;DHT22;14613;46.308;25.288;2022-08-25T05:36:32;20.90;83.00
27072;DHT22;14613;46.308;25.288;2022-08-25T05:38:59;20.90;83.00
27072;DHT22;14613;46.308;25.288;2022-08-25T05:41:27;20.90;83.00
27072;DHT22;14613;46.308;25.288;2022-08-25T05:43:53;20.90;82.80
27072;DHT22;14613;46.308;25.288;2022-08-25T05:46:19;20.90;82.80
27072;DHT22;14613;46.308;25.288;2022-08-25T05:48:46;20.90;82.70
27072;DHT22;14613;46.308;25.288;2022-08-25T05:51:13;21.00;82.80
27072;DHT22;14613;46.308;25.288;2022-08-25T05:53:41;21.00;82.80
27072;DHT22;14613;46.308;25.288;2022-08-25T05:56:08;21.10;82.90
27072;DHT22;14613;46.308;25.288;2022-08-25T05:58:35;21.20;82.80
27072;DHT22;14613;46.308;25.288;2022-08-25T06:01:01;21.40;83.10
27072;DHT22;14613;46.308;25.288;2022-08-25T06:03:48;21.60;83.00
27072;DHT22;14613;46.308;25.288;2022-08-25T06:06:15;21.70;82.40
27072;DHT22;14613;46.308;25.288;2022-08-25T06:08:42;21.80;82.00
27072;DHT22;14613;46.308;25.288;2022-08-25T06:11:09;21.90;81.50
27072;DHT22;14613;46.308;25.288;2022-08-25T06:13:35;22.00;81.20
27072;DHT22;14613;46.308;25.288;2022-08-25T06:16:01;22.10;80.90
27072;DHT22;14613;46.308;25.288;2022-08-25T06:18:27;22.20;80.50
27072;DHT22;14613;46.308;25.288;2022-08-25T06:20:52;22.20;80.00
27072;DHT22;14613;46.308;25.288;2022-08-25T06:23:19;22.30;79.70
27072;DHT22;14613;46.308;25.288;2022-08-25T06:25:49;22.30;79.60
27072;DHT22;14613;46.308;25.288;2022-08-25T06:28:15;22.40;79.40
27072;DHT22;14613;46.308;25.288;2022-08-25T06:30:41;22.50;79.20
27072;DHT22;14613;46.308;25.288;2022-08-25T06:33:07;22.50;78.80
27072;DHT22;14613;46.308;25.288;2022-08-25T06:35:33;22.50;78.50
27072;DHT22;14613;46.308;25.288;2022-08-25T06:37:59;22.70;78.20
27072;DHT22;14613;46.308;25.288;2022-08-25T06:40:25;22.80;78.10
27072;DHT22;14613;46.308;25.288;2022-08-25T06:42:50;23.00;77.80
27072;DHT22;14613;46.308;25.288;2022-08-25T06:45:16;23.10;77.30
27072;DHT22;14613;46.308;25.288;2022-08-25T06:47:43;23.30;77.00
27072;DHT22;14613;46.308;25.288;2022-08-25T06:50:09;23.40;76.50
27072;DHT22;14613;46.308;25.288;2022-08-25T06:52:35;23.50;76.00
27072;DHT22;14613;46.308;25.288;2022-08-25T06:55:02;23.60;75.80
27072;DHT22;14613;46.308;25.288;2022-08-25T06:57:28;23.60;75.30
27072;DHT22;14613;46.308;25.288;2022-08-25T06:59:54;23.50;75.00
27072;DHT22;14613;46.308;25.288;2022-08-25T07:02:19;23.60;75.00
27072;DHT22;14613;46.308;25.288;2022-08-25T07:04:45;23.60;74.60
27072;DHT22;14613;46.308;25.288;2022-08-25T07:07:11;23.70;74.60
27072;DHT22;14613;46.308;25.288;2022-08-25T07:09:37;23.80;74.30
27072;DHT22;14613;46.308;25.288;2022-08-25T07:12:03;24.00;74.00
27072;DHT22;14613;46.308;25.288;2022-08-25T07:14:30;24.10;73.40
27072;DHT22;14613;46.308;25.288;2022-08-25T07:16:55;24.30;73.70
27072;DHT22;14613;46.308;25.288;2022-08-25T07:19:22;24.50;72.40
27072;DHT22;14613;46.308;25.288;2022-08-25T07:21:50;24.60;71.60
27072;DHT22;14613;46.308;25.288;2022-08-25T07:24:16;24.70;71.30
27072;DHT22;14613;46.308;25.288;2022-08-25T07:26:43;24.90;71.00
27072;DHT22;14613;46.308;25.288;2022-08-25T07:29:15;25.10;70.80
27072;DHT22;14613;46.308;25.288;2022-08-25T07:31:41;25.30;70.60
27072;DHT22;14613;46.308;25.288;2022-08-25T07:34:07;25.50;70.40
27072;DHT22;14613;46.308;25.288;2022-08-25T07:36:52;25.80;70.00
27072;DHT22;14613;46.308;25.288;2022-08-25T07:39:19;26.30;69.50
27072;DHT22;14613;46.308;25.288;2022-08-25T07:41:44;26.60;68.60
27072;DHT22;14613;46.308;25.288;2022-08-25T07:44:11;27.00;67.80
27072;DHT22;14613;46.308;25.288;2022-08-25T07:46:38;27.20;67.80
27072;DHT22;14613;46.308;25.288;2022-08-25T07:49:05;27.50;66.40
27072;DHT22;14613;46.308;25.288;2022-08-25T07:51:31;27.70;65.60
27072;DHT22;14613;46.308;25.288;2022-08-25T07:53:57;28.00;64.90
27072;DHT22;14613;46.308;25.288;2022-08-25T07:56:23;28.20;64.10
27072;DHT22;14613;46.308;25.288;2022-08-25T07:58:49;28.50;62.90
27072;DHT22;14613;46.308;25.288;2022-08-25T08:01:23;28.70;62.20
27072;DHT22;14613;46.308;25.288;2022-08-25T08:03:50;29.00;61.30
27072;DHT22;14613;46.308;25.288;2022-08-25T08:06:21;29.20;61.20
27072;DHT22;14613;46.308;25.288;2022-08-25T08:08:48;29.50;60.70
27072;DHT22;14613;46.308;25.288;2022-08-25T08:11:23;29.70;59.90
27072;DHT22;14613;46.308;25.288;2022-08-25T08:13:52;29.90;59.30
27072;DHT22;14613;46.308;25.288;2022-08-25T08:16:20;30.20;59.30
27072;DHT22;14613;46.308;25.288;2022-08-25T08:18:46;30.30;58.80
27072;DHT22;14613;46.308;25.288;2022-08-25T08:21:15;30.60;58.50
27072;DHT22;14613;46.308;25.288;2022-08-25T08:23:41;30.80;58.10
27072;DHT22;14613;46.308;25.288;2022-08-25T08:26:07;31.00;57.80
27072;DHT22;14613;46.308;25.288;2022-08-25T08:28:33;31.10;57.20
27072;DHT22;14613;46.308;25.288;2022-08-25T08:30:59;31.30;56.90
27072;DHT22;14613;46.308;25.288;2022-08-25T08:33:25;31.50;56.60
27072;DHT22;14613;46.308;25.288;2022-08-25T08:35:58;31.60;56.30
27072;DHT22;14613;46.308;25.288;2022-08-25T08:38:24;31.80;56.10
27072;DHT22;14613;46.308;25.288;2022-08-25T08:43:59;32.00;55.60
27072;DHT22;14613;46.308;25.288;2022-08-25T08:46:38;32.10;55.40
27072;DHT22;14613;46.308;25.288;2022-08-25T08:49:12;32.20;55.30
27072;DHT22;14613;46.308;25.288;2022-08-25T08:51:54;32.30;55.40
27072;DHT22;14613;46.308;25.288;2022-08-25T08:54:23;32.30;55.30
27072;DHT22;14613;46.308;25.288;2022-08-25T08:57:15;32.40;55.10
27072;DHT22;14613;46.308;25.288;2022-08-25T08:59:48;32.60;54.70
27072;DHT22;14613;46.308;25.288;2022-08-25T09:02:26;32.80;54.70
27072;DHT22;14613;46.308;25.288;2022-08-25T09:04:58;32.90;54.50
27072;DHT22;14613;46.308;25.288;2022-08-25T09:07:32;33.10;53.90
27072;DHT22;14613;46.308;25.288;2022-08-25T09:10:00;33.30;53.60
27072;DHT22;14613;46.308;25.288;2022-08-25T09:12:36;33.40;53.30
27072;DHT22;14613;46.308;25.288;2022-08-25T09:15:08;33.60;52.80
27072;DHT22;14613;46.308;25.288;2022-08-25T09:17:59;33.80;52.50
27072;DHT22;14613;46.308;25.288;2022-08-25T09:26:24;34.20;48.00
27072;DHT22;14613;46.308;25.288;2022-08-25T09:29:06;34.30;47.30
27072;DHT22;14613;46.308;25.288;2022-08-25T09:31:37;34.30;45.40
27072;DHT22;14613;46.308;25.288;2022-08-25T09:34:12;34.20;44.70
27072;DHT22;14613;46.308;25.288;2022-08-25T09:36:41;34.10;44.30
27072;DHT22;14613;46.308;25.288;2022-08-25T09:39:07;34.20;44.50
27072;DHT22;14613;46.308;25.288;2022-08-25T09:41:48;34.20;44.00
27072;DHT22;14613;46.308;25.288;2022-08-25T09:44:38;34.30;42.80
27072;DHT22;14613;46.308;25.288;2022-08-25T09:47:20;34.20;41.10
27072;DHT22;14613;46.308;25.288;2022-08-25T09:49:50;33.80;40.70
27072;DHT22;14613;46.308;25.288;2022-08-25T09:52:36;33.70;40.80
27072;DHT22;14613;46.308;25.288;2022-08-25T09:57:51;33.90;40.90
27072;DHT22;14613;46.308;25.288;2022-08-25T10:03:12;34.10;40.20
27072;DHT22;14613;46.308;25.288;2022-08-25T10:08:31;34.00;39.50
27072;DHT22;14613;46.308;25.288;2022-08-25T10:10:59;33.90;40.10
27072;DHT22;14613;46.308;25.288;2022-08-25T10:16:23;33.70;36.50
27072;DHT22;14613;46.308;25.288;2022-08-25T10:19:11;33.40;35.90
27072;DHT22;14613;46.308;25.288;2022-08-25T10:21:42;33.10;34.50
27072;DHT22;14613;46.308;25.288;2022-08-25T10:24:10;33.00;35.70
27072;DHT22;14613;46.308;25.288;2022-08-25T10:27:04;33.00;36.20
27072;DHT22;14613;46.308;25.288;2022-08-25T10:32:39;33.00;35.00
27072;DHT22;14613;46.308;25.288;2022-08-25T10:35:37;32.90;34.90
27072;DHT22;14613;46.308;25.288;2022-08-25T10:40:51;33.00;35.60
27072;DHT22;14613;46.308;25.288;2022-08-25T10:46:35;33.00;35.00
27072;DHT22;14613;46.308;25.288;2022-08-25T10:49:18;33.00;35.30
27072;DHT22;14613;46.308;25.288;2022-08-25T10:54:26;33.50;35.70
27072;DHT22;14613;46.308;25.288;2022-08-25T10:59:44;33.60;35.10
27072;DHT22;14613;46.308;25.288;2022-08-25T11:05:13;33.60;34.30
27072;DHT22;14613;46.308;25.288;2022-08-25T11:07:47;33.70;34.90
27072;DHT22;14613;46.308;25.288;2022-08-25T11:10:37;33.80;34.70
27072;DHT22;14613;46.308;25.288;2022-08-25T11:13:08;33.80;34.50
27072;DHT22;14613;46.308;25.288;2022-08-25T11:15:39;34.00;34.80
27072;DHT22;14613;46.308;25.288;2022-08-25T11:18:09;34.00;34.20
27072;DHT22;14613;46.308;25.288;2022-08-25T11:23:30;33.80;34.00
27072;DHT22;14613;46.308;25.288;2022-08-25T11:26:10;33.80;34.20
27072;DHT22;14613;46.308;25.288;2022-08-25T11:29:13;33.80;34.40
27072;DHT22;14613;46.308;25.288;2022-08-25T11:31:51;33.80;33.90
27072;DHT22;14613;46.308;25.288;2022-08-25T11:34:17;33.70;33.90
27072;DHT22;14613;46.308;25.288;2022-08-25T11:37:06;33.70;34.20
27072;DHT22;14613;46.308;25.288;2022-08-25T11:51:46;33.50;32.90
27072;DHT22;14613;46.308;25.288;2022-08-25T11:56:42;33.20;33.40
27072;DHT22;14613;46.308;25.288;2022-08-25T12:05:49;33.60;33.40
27072;DHT22;14613;46.308;25.288;2022-08-25T12:16:35;33.80;33.00
27072;DHT22;14613;46.308;25.288;2022-08-25T12:38:46;33.30;32.80
27072;DHT22;14613;46.308;25.288;2022-08-25T12:41:25;33.20;33.30
27072;DHT22;14613;46.308;25.288;2022-08-25T12:43:53;33.30;33.70
27072;DHT22;14613;46.308;25.288;2022-08-25T12:46:36;33.40;33.90
27072;DHT22;14613;46.308;25.288;2022-08-25T12:49:31;33.50;33.70
27072;DHT22;14613;46.308;25.288;2022-08-25T12:52:09;33.50;33.30
27072;DHT22;14613;46.308;25.288;2022-08-25T12:54:53;33.40;33.40
27072;DHT22;14613;46.308;25.288;2022-08-25T13:00:00;33.20;33.10
27072;DHT22;14613;46.308;25.288;2022-08-25T13:05:44;33.20;33.10
27072;DHT22;14613;46.308;25.288;2022-08-25T13:11:11;33.10;32.70
27072;DHT22;14613;46.308;25.288;2022-08-25T13:14:05;33.00;32.80
27072;DHT22;14613;46.308;25.288;2022-08-25T13:16:32;33.20;32.90
27072;DHT22;14613;46.308;25.288;2022-08-25T13:19:01;33.30;33.20
27072;DHT22;14613;46.308;25.288;2022-08-25T13:21:40;33.30;32.70
27072;DHT22;14613;46.308;25.288;2022-08-25T13:24:28;33.30;32.80
27072;DHT22;14613;46.308;25.288;2022-08-25T13:27:01;33.20;32.60
27072;DHT22;14613;46.308;25.288;2022-08-25T13:29:30;33.20;33.20
27072;DHT22;14613;46.308;25.288;2022-08-25T13:31:58;33.30;32.90
27072;DHT22;14613;46.308;25.288;2022-08-25T13:34:39;33.20;32.70
27072;DHT22;14613;46.308;25.288;2022-08-25T13:37:16;33.10;32.90
27072;DHT22;14613;46.308;25.288;2022-08-25T13:42:42;32.90;32.40
27072;DHT22;14613;46.308;25.288;2022-08-25T13:45:15;32.90;32.90
27072;DHT22;14613;46.308;25.288;2022-08-25T13:47:42;32.90;33.00
27072;DHT22;14613;46.308;25.288;2022-08-25T13:53:33;33.00;32.80
27072;DHT22;14613;46.308;25.288;2022-08-25T13:55:50;33.00;33.00
27072;DHT22;14613;46.308;25.288;2022-08-25T13:58:22;32.90;32.70
27072;DHT22;14613;46.308;25.288;2022-08-25T14:01:09;32.90;33.10
27072;DHT22;14613;46.308;25.288;2022-08-25T14:03:42;32.90;33.00
27072;DHT22;14613;46.308;25.288;2022-08-25T14:11:28;32.60;33.20
27072;DHT22;14613;46.308;25.288;2022-08-25T14:14:03;32.50;33.20
27072;DHT22;14613;46.308;25.288;2022-08-25T14:16:32;32.50;33.40
27072;DHT22;14613;46.308;25.288;2022-08-25T14:19:00;32.40;33.40
27072;DHT22;14613;46.308;25.288;2022-08-25T14:21:29;32.30;33.40
27072;DHT22;14613;46.308;25.288;2022-08-25T14:23:56;32.30;33.40
27072;DHT22;14613;46.308;25.288;2022-08-25T14:26:23;32.30;33.50
27072;DHT22;14613;46.308;25.288;2022-08-25T14:28:49;32.20;33.10
27072;DHT22;14613;46.308;25.288;2022-08-25T14:31:24;32.20;33.00
27072;DHT22;14613;46.308;25.288;2022-08-25T14:33:57;32.10;32.90
27072;DHT22;14613;46.308;25.288;2022-08-25T14:36:23;32.10;33.10
27072;DHT22;14613;46.308;25.288;2022-08-25T14:38:49;32.10;33.10
27072;DHT22;14613;46.308;25.288;2022-08-25T14:41:15;32.10;33.20
27072;DHT22;14613;46.308;25.288;2022-08-25T14:43:41;32.00;33.10
27072;DHT22;14613;46.308;25.288;2022-08-25T14:46:19;31.90;33.10
27072;DHT22;14613;46.308;25.288;2022-08-25T14:48:49;31.90;33.30
27072;DHT22;14613;46.308;25.288;2022-08-25T14:51:18;31.80;33.20
27072;DHT22;14613;46.308;25.288;2022-08-25T14:53:44;31.80;33.40
27072;DHT22;14613;46.308;25.288;2022-08-25T14:56:10;31.80;33.50
27072;DHT22;14613;46.308;25.288;2022-08-25T14:58:36;31.80;33.50
27072;DHT22;14613;46.308;25.288;2022-08-25T15:01:02;31.80;33.50
27072;DHT22;14613;46.308;25.288;2022-08-25T15:03:36;31.80;34.20
27072;DHT22;14613;46.308;25.288;2022-08-25T15:06:03;31.70;33.40
27072;DHT22;14613;46.308;25.288;2022-08-25T15:08:29;31.50;33.50
27072;DHT22;14613;46.308;25.288;2022-08-25T15:11:14;31.50;33.80
27072;DHT22;14613;46.308;25.288;2022-08-25T15:13:40;31.40;34.10
27072;DHT22;14613;46.308;25.288;2022-08-25T15:16:06;31.40;34.10
27072;DHT22;14613;46.308;25.288;2022-08-25T15:18:34;31.30;34.20
27072;DHT22;14613;46.308;25.288;2022-08-25T15:21:00;31.30;34.60
27072;DHT22;14613;46.308;25.288;2022-08-25T15:23:27;31.20;34.80
27072;DHT22;14613;46.308;25.288;2022-08-25T15:25:53;31.20;34.90
27072;DHT22;14613;46.308;25.288;2022-08-25T15:28:20;31.20;35.10
27072;DHT22;14613;46.308;25.288;2022-08-25T15:30:46;31.10;34.90
27072;DHT22;14613;46.308;25.288;2022-08-25T15:33:15;31.10;35.00
27072;DHT22;14613;46.308;25.288;2022-08-25T15:35:42;31.00;35.20
27072;DHT22;14613;46.308;25.288;2022-08-25T15:38:07;31.00;35.20
27072;DHT22;14613;46.308;25.288;2022-08-25T15:40:34;30.90;35.30
27072;DHT22;14613;46.308;25.288;2022-08-25T15:43:03;30.80;35.50
27072;DHT22;14613;46.308;25.288;2022-08-25T15:45:29;30.80;35.60
27072;DHT22;14613;46.308;25.288;2022-08-25T15:47:56;30.80;35.80
27072;DHT22;14613;46.308;25.288;2022-08-25T15:50:22;30.80;36.00
27072;DHT22;14613;46.308;25.288;2022-08-25T15:52:48;30.70;36.10
27072;DHT22;14613;46.308;25.288;2022-08-25T15:55:15;30.70;36.70
27072;DHT22;14613;46.308;25.288;2022-08-25T15:57:41;30.60;36.70
27072;DHT22;14613;46.308;25.288;2022-08-25T16:00:09;30.50;36.30
27072;DHT22;14613;46.308;25.288;2022-08-25T16:02:36;30.50;36.50
27072;DHT22;14613;46.308;25.288;2022-08-25T16:05:07;30.40;36.50
27072;DHT22;14613;46.308;25.288;2022-08-25T16:07:33;30.40;36.70
27072;DHT22;14613;46.308;25.288;2022-08-25T16:09:59;30.40;36.80
27072;DHT22;14613;46.308;25.288;2022-08-25T16:12:25;30.30;36.90
27072;DHT22;14613;46.308;25.288;2022-08-25T16:14:51;30.30;37.10
27072;DHT22;14613;46.308;25.288;2022-08-25T16:17:18;30.20;37.20
27072;DHT22;14613;46.308;25.288;2022-08-25T16:19:44;30.10;37.40
27072;DHT22;14613;46.308;25.288;2022-08-25T16:22:10;30.00;37.60
27072;DHT22;14613;46.308;25.288;2022-08-25T16:24:41;30.00;37.80
27072;DHT22;14613;46.308;25.288;2022-08-25T16:27:09;30.00;38.10
27072;DHT22;14613;46.308;25.288;2022-08-25T16:29:37;29.90;38.30
27072;DHT22;14613;46.308;25.288;2022-08-25T16:32:06;29.80;38.40
27072;DHT22;14613;46.308;25.288;2022-08-25T16:34:33;29.90;38.70
27072;DHT22;14613;46.308;25.288;2022-08-25T16:37:00;29.80;38.90
27072;DHT22;14613;46.308;25.288;2022-08-25T16:39:26;29.80;39.20
27072;DHT22;14613;46.308;25.288;2022-08-25T16:41:52;29.70;39.40
27072;DHT22;14613;46.308;25.288;2022-08-25T16:44:18;29.70;39.50
27072;DHT22;14613;46.308;25.288;2022-08-25T16:46:45;29.50;39.70
27072;DHT22;14613;46.308;25.288;2022-08-25T16:49:12;29.40;40.00
27072;DHT22;14613;46.308;25.288;2022-08-25T16:51:39;29.30;40.40
27072;DHT22;14613;46.308;25.288;2022-08-25T16:54:08;29.30;40.80
27072;DHT22;14613;46.308;25.288;2022-08-25T16:56:53;29.20;41.00
27072;DHT22;14613;46.308;25.288;2022-08-25T16:59:20;29.10;41.30
27072;DHT22;14613;46.308;25.288;2022-08-25T17:01:45;29.10;41.70
27072;DHT22;14613;46.308;25.288;2022-08-25T17:04:11;28.90;41.90
27072;DHT22;14613;46.308;25.288;2022-08-25T17:06:40;28.80;42.00
27072;DHT22;14613;46.308;25.288;2022-08-25T17:09:08;28.70;42.20
27072;DHT22;14613;46.308;25.288;2022-08-25T17:11:38;28.60;42.30
27072;DHT22;14613;46.308;25.288;2022-08-25T17:14:07;28.50;42.40
27072;DHT22;14613;46.308;25.288;2022-08-25T17:16:33;28.40;42.50
27072;DHT22;14613;46.308;25.288;2022-08-25T17:19:01;28.30;42.60
27072;DHT22;14613;46.308;25.288;2022-08-25T17:21:33;28.20;42.80
27072;DHT22;14613;46.308;25.288;2022-08-25T17:24:00;28.20;43.00